sensor_id;sensor_type;location;lat;lon;timestamp;P1;durP1;ratioP1;P2;durP2;ratioP2
28166;SDS011;15455;53.376;-6.262;2022-09-23T00:00:25;5.47;;;1.95;;
28166;SDS011;15455;53.376;-6.262;2022-09-23T00:03:10;6.80;;;1.40;;
28166;SDS011;15455;53.376;-6.262;2022-09-23T00:06:00;4.10;;;1.70;;
28166;SDS011;15455;53.376;-6.262;2022-09-23T00:08:48;11.85;;;1.83;;
28166;SDS011;15455;53.376;-6.262;2022-09-23T00:11:35;4.10;;;1.90;;
28166;SDS011;15455;53.376;-6.262;2022-09-23T00:14:20;8.13;;;1.55;;
28166;SDS011;15455;53.376;-6.262;2022-09-23T00:17:06;4.85;;;2.10;;
28166;SDS011;15455;53.376;-6.262;2022-09-23T00:19:52;14.27;;;1.92;;
28166;SDS011;15455;53.376;-6.262;2022-09-23T00:22:39;4.88;;;1.60;;
28166;SDS011;15455;53.376;-6.262;2022-09-23T00:25:25;6.63;;;1.77;;
28166;SDS011;15455;53.376;-6.262;2022-09-23T00:28:13;3.83;;;1.83;;
28166;SDS011;15455;53.376;-6.262;2022-09-23T00:31:06;8.50;;;2.15;;
28166;SDS011;15455;53.376;-6.262;2022-09-23T00:33:54;4.00;;;2.00;;
28166;SDS011;15455;53.376;-6.262;2022-09-23T00:36:43;3.60;;;1.48;;
28166;SDS011;15455;53.376;-6.262;2022-09-23T00:39:28;9.82;;;2.13;;
28166;SDS011;15455;53.376;-6.262;2022-09-23T00:42:15;6.60;;;1.65;;
28166;SDS011;15455;53.376;-6.262;2022-09-23T00:45:04;5.07;;;2.10;;
28166;SDS011;15455;53.376;-6.262;2022-09-23T00:47:58;6.28;;;2.17;;
28166;SDS011;15455;53.376;-6.262;2022-09-23T00:50:47;10.90;;;2.03;;
28166;SDS011;15455;53.376;-6.262;2022-09-23T00:53:38;4.15;;;1.95;;
28166;SDS011;15455;53.376;-6.262;2022-09-23T00:56:24;11.90;;;2.75;;
28166;SDS011;15455;53.376;-6.262;2022-09-23T00:59:12;12.82;;;3.05;;
28166;SDS011;15455;53.376;-6.262;2022-09-23T01:01:57;8.40;;;2.50;;
28166;SDS011;15455;53.376;-6.262;2022-09-23T01:04:46;15.98;;;2.70;;
28166;SDS011;15455;53.376;-6.262;2022-09-23T01:07:34;12.52;;;2.17;;
28166;SDS011;15455;53.376;-6.262;2022-09-23T01:10:20;5.88;;;2.35;;
28166;SDS011;15455;53.376;-6.262;2022-09-23T01:16:22;7.88;;;2.00;;
28166;SDS011;15455;53.376;-6.262;2022-09-23T01:22:16;12.80;;;2.50;;
28166;SDS011;15455;53.376;-6.262;2022-09-23T01:34:35;9.85;;;2.28;;
28166;SDS011;15455;53.376;-6.262;2022-09-23T01:46:46;3.22;;;2.17;;
28166;SDS011;15455;53.376;-6.262;2022-09-23T01:49:24;7.23;;;2.07;;
28166;SDS011;15455;53.376;-6.262;2022-09-23T01:52:23;5.00;;;1.70;;
28166;SDS011;15455;53.376;-6.262;2022-09-23T01:55:21;11.27;;;2.88;;
28166;SDS011;15455;53.376;-6.262;2022-09-23T01:58:14;3.25;;;2.33;;
28166;SDS011;15455;53.376;-6.262;2022-09-23T02:01:18;6.80;;;2.38;;
28166;SDS011;15455;53.376;-6.262;2022-09-23T02:04:21;6.53;;;2.30;;
28166;SDS011;15455;53.376;-6.262;2022-09-23T02:07:10;10.43;;;2.65;;
28166;SDS011;15455;53.376;-6.262;2022-09-23T02:10:21;7.28;;;2.38;;
28166;SDS011;15455;53.376;-6.262;2022-09-23T02:13:21;6.60;;;2.70;;
28166;SDS011;15455;53.376;-6.262;2022-09-23T02:16:31;9.25;;;1.80;;
28166;SDS011;15455;53.376;-6.262;2022-09-23T02:19:25;10.75;;;2.30;;
28166;SDS011;15455;53.376;-6.262;2022-09-23T02:22:15;7.28;;;2.05;;
28166;SDS011;15455;53.376;-6.262;2022-09-23T02:25:06;2.72;;;1.98;;
28166;SDS011;15455;53.376;-6.262;2022-09-23T02:30:51;5.95;;;2.45;;
28166;SDS011;15455;53.376;-6.262;2022-09-23T02:34:04;12.65;;;2.20;;
28166;SDS011;15455;53.376;-6.262;2022-09-23T02:40:54;8.43;;;2.22;;
28166;SDS011;15455;53.376;-6.262;2022-09-23T02:43:38;9.45;;;2.15;;
28166;SDS011;15455;53.376;-6.262;2022-09-23T02:46:37;6.32;;;2.17;;
28166;SDS011;15455;53.376;-6.262;2022-09-23T02:49:24;4.90;;;2.40;;
28166;SDS011;15455;53.376;-6.262;2022-09-23T02:52:12;12.40;;;2.50;;
28166;SDS011;15455;53.376;-6.262;2022-09-23T02:54:58;6.85;;;2.50;;
28166;SDS011;15455;53.376;-6.262;2022-09-23T02:57:44;7.18;;;1.70;;
28166;SDS011;15455;53.376;-6.262;2022-09-23T03:00:38;8.98;;;2.20;;
28166;SDS011;15455;53.376;-6.262;2022-09-23T03:07:03;5.18;;;1.92;;
28166;SDS011;15455;53.376;-6.262;2022-09-23T03:16:29;4.13;;;2.42;;
28166;SDS011;15455;53.376;-6.262;2022-09-23T03:25:18;9.35;;;2.28;;
28166;SDS011;15455;53.376;-6.262;2022-09-23T03:28:08;5.00;;;2.10;;
28166;SDS011;15455;53.376;-6.262;2022-09-23T03:30:54;8.13;;;1.67;;
28166;SDS011;15455;53.376;-6.262;2022-09-23T03:33:49;11.57;;;2.30;;
28166;SDS011;15455;53.376;-6.262;2022-09-23T03:37:01;10.70;;;2.10;;
28166;SDS011;15455;53.376;-6.262;2022-09-23T03:40:14;6.55;;;1.70;;
28166;SDS011;15455;53.376;-6.262;2022-09-23T03:43:04;11.15;;;2.45;;
28166;SDS011;15455;53.376;-6.262;2022-09-23T03:45:51;7.13;;;1.77;;
28166;SDS011;15455;53.376;-6.262;2022-09-23T03:48:41;3.78;;;2.05;;
28166;SDS011;15455;53.376;-6.262;2022-09-23T03:51:27;3.08;;;1.50;;
28166;SDS011;15455;53.376;-6.262;2022-09-23T03:54:12;3.75;;;2.00;;
28166;SDS011;15455;53.376;-6.262;2022-09-23T03:56:58;6.82;;;2.03;;
28166;SDS011;15455;53.376;-6.262;2022-09-23T03:59:44;5.97;;;1.85;;
28166;SDS011;15455;53.376;-6.262;2022-09-23T04:02:30;7.80;;;1.85;;
28166;SDS011;15455;53.376;-6.262;2022-09-23T04:05:16;2.20;;;1.50;;
28166;SDS011;15455;53.376;-6.262;2022-09-23T04:08:02;5.05;;;2.00;;
28166;SDS011;15455;53.376;-6.262;2022-09-23T04:10:47;3.60;;;1.65;;
28166;SDS011;15455;53.376;-6.262;2022-09-23T04:13:39;6.20;;;1.50;;
28166;SDS011;15455;53.376;-6.262;2022-09-23T04:16:24;4.75;;;2.03;;
28166;SDS011;15455;53.376;-6.262;2022-09-23T04:19:10;3.83;;;1.30;;
28166;SDS011;15455;53.376;-6.262;2022-09-23T04:21:57;7.70;;;1.30;;
28166;SDS011;15455;53.376;-6.262;2022-09-23T04:24:42;4.38;;;1.75;;
28166;SDS011;15455;53.376;-6.262;2022-09-23T04:27:28;5.78;;;1.90;;
28166;SDS011;15455;53.376;-6.262;2022-09-23T04:30:19;4.25;;;1.50;;
28166;SDS011;15455;53.376;-6.262;2022-09-23T04:33:04;7.78;;;1.98;;
28166;SDS011;15455;53.376;-6.262;2022-09-23T04:35:50;6.50;;;1.52;;
28166;SDS011;15455;53.376;-6.262;2022-09-23T04:38:36;2.20;;;1.80;;
28166;SDS011;15455;53.376;-6.262;2022-09-23T04:41:21;6.82;;;1.80;;
28166;SDS011;15455;53.376;-6.262;2022-09-23T04:44:07;3.60;;;1.48;;
28166;SDS011;15455;53.376;-6.262;2022-09-23T04:46:52;6.65;;;1.58;;
28166;SDS011;15455;53.376;-6.262;2022-09-23T04:49:38;5.72;;;2.00;;
28166;SDS011;15455;53.376;-6.262;2022-09-23T04:52:25;2.50;;;1.38;;
28166;SDS011;15455;53.376;-6.262;2022-09-23T04:55:11;4.15;;;2.03;;
28166;SDS011;15455;53.376;-6.262;2022-09-23T04:57:56;5.55;;;1.88;;
28166;SDS011;15455;53.376;-6.262;2022-09-23T05:00:42;4.75;;;1.63;;
28166;SDS011;15455;53.376;-6.262;2022-09-23T05:03:28;7.55;;;1.88;;
28166;SDS011;15455;53.376;-6.262;2022-09-23T05:06:15;7.18;;;1.55;;
28166;SDS011;15455;53.376;-6.262;2022-09-23T05:09:00;4.25;;;1.63;;
28166;SDS011;15455;53.376;-6.262;2022-09-23T05:11:48;3.40;;;1.65;;
28166;SDS011;15455;53.376;-6.262;2022-09-23T05:14:33;7.43;;;1.95;;
28166;SDS011;15455;53.376;-6.262;2022-09-23T05:17:19;5.05;;;1.77;;
28166;SDS011;15455;53.376;-6.262;2022-09-23T05:20:05;8.50;;;1.88;;
28166;SDS011;15455;53.376;-6.262;2022-09-23T05:22:51;9.38;;;2.72;;
28166;SDS011;15455;53.376;-6.262;2022-09-23T05:25:39;4.32;;;2.15;;
28166;SDS011;15455;53.376;-6.262;2022-09-23T05:28:27;4.43;;;2.05;;
28166;SDS011;15455;53.376;-6.262;2022-09-23T05:31:22;11.18;;;2.55;;
28166;SDS011;15455;53.376;-6.262;2022-09-23T05:34:09;5.32;;;2.15;;
28166;SDS011;15455;53.376;-6.262;2022-09-23T05:36:55;9.15;;;2.28;;
28166;SDS011;15455;53.376;-6.262;2022-09-23T05:39:42;4.22;;;2.22;;
28166;SDS011;15455;53.376;-6.262;2022-09-23T05:42:27;5.45;;;2.13;;
28166;SDS011;15455;53.376;-6.262;2022-09-23T05:45:13;7.68;;;2.47;;
28166;SDS011;15455;53.376;-6.262;2022-09-23T05:47:59;8.25;;;2.10;;
28166;SDS011;15455;53.376;-6.262;2022-09-23T05:50:49;15.43;;;3.17;;
28166;SDS011;15455;53.376;-6.262;2022-09-23T05:53:35;7.10;;;1.98;;
28166;SDS011;15455;53.376;-6.262;2022-09-23T05:56:21;5.00;;;2.15;;
28166;SDS011;15455;53.376;-6.262;2022-09-23T05:59:09;8.77;;;2.63;;
28166;SDS011;15455;53.376;-6.262;2022-09-23T06:01:55;6.18;;;2.75;;
28166;SDS011;15455;53.376;-6.262;2022-09-23T06:04:40;8.32;;;2.15;;
28166;SDS011;15455;53.376;-6.262;2022-09-23T06:07:27;2.38;;;2.17;;
28166;SDS011;15455;53.376;-6.262;2022-09-23T06:10:12;5.25;;;1.90;;
28166;SDS011;15455;53.376;-6.262;2022-09-23T06:12:58;3.85;;;1.90;;
28166;SDS011;15455;53.376;-6.262;2022-09-23T06:15:43;7.22;;;2.17;;
28166;SDS011;15455;53.376;-6.262;2022-09-23T06:18:29;5.22;;;2.33;;
28166;SDS011;15455;53.376;-6.262;2022-09-23T06:21:15;5.43;;;2.42;;
28166;SDS011;15455;53.376;-6.262;2022-09-23T06:24:01;6.00;;;2.20;;
28166;SDS011;15455;53.376;-6.262;2022-09-23T06:26:47;3.28;;;2.38;;
28166;SDS011;15455;53.376;-6.262;2022-09-23T06:29:33;8.23;;;2.65;;
28166;SDS011;15455;53.376;-6.262;2022-09-23T06:32:18;3.47;;;2.33;;
28166;SDS011;15455;53.376;-6.262;2022-09-23T06:35:04;6.95;;;2.83;;
28166;SDS011;15455;53.376;-6.262;2022-09-23T06:38:04;6.40;;;2.42;;
28166;SDS011;15455;53.376;-6.262;2022-09-23T06:40:50;10.30;;;2.70;;
28166;SDS011;15455;53.376;-6.262;2022-09-23T06:43:36;11.55;;;2.40;;
28166;SDS011;15455;53.376;-6.262;2022-09-23T06:46:22;5.65;;;1.95;;
28166;SDS011;15455;53.376;-6.262;2022-09-23T06:49:08;9.65;;;2.63;;
28166;SDS011;15455;53.376;-6.262;2022-09-23T06:51:53;6.43;;;2.50;;
28166;SDS011;15455;53.376;-6.262;2022-09-23T06:54:40;2.85;;;2.00;;
28166;SDS011;15455;53.376;-6.262;2022-09-23T06:57:29;6.72;;;2.03;;
28166;SDS011;15455;53.376;-6.262;2022-09-23T07:00:16;5.93;;;2.35;;
28166;SDS011;15455;53.376;-6.262;2022-09-23T07:03:08;8.52;;;2.95;;
28166;SDS011;15455;53.376;-6.262;2022-09-23T07:05:54;8.70;;;3.22;;
28166;SDS011;15455;53.376;-6.262;2022-09-23T07:08:44;8.00;;;3.08;;
28166;SDS011;15455;53.376;-6.262;2022-09-23T07:11:31;6.53;;;3.80;;
28166;SDS011;15455;53.376;-6.262;2022-09-23T07:14:16;6.95;;;3.22;;
28166;SDS011;15455;53.376;-6.262;2022-09-23T07:17:02;7.78;;;3.70;;
28166;SDS011;15455;53.376;-6.262;2022-09-23T07:19:47;8.32;;;5.45;;
28166;SDS011;15455;53.376;-6.262;2022-09-23T07:22:33;11.98;;;3.53;;
28166;SDS011;15455;53.376;-6.262;2022-09-23T07:25:20;10.75;;;3.60;;
28166;SDS011;15455;53.376;-6.262;2022-09-23T07:28:07;7.78;;;3.85;;
28166;SDS011;15455;53.376;-6.262;2022-09-23T07:30:52;6.90;;;3.85;;
28166;SDS011;15455;53.376;-6.262;2022-09-23T07:33:44;13.90;;;4.10;;
28166;SDS011;15455;53.376;-6.262;2022-09-23T07:36:30;15.98;;;3.28;;
28166;SDS011;15455;53.376;-6.262;2022-09-23T07:39:17;8.10;;;4.03;;
28166;SDS011;15455;53.376;-6.262;2022-09-23T07:42:02;8.60;;;3.65;;
28166;SDS011;15455;53.376;-6.262;2022-09-23T07:44:49;5.95;;;3.28;;
28166;SDS011;15455;53.376;-6.262;2022-09-23T07:47:35;10.98;;;3.33;;
28166;SDS011;15455;53.376;-6.262;2022-09-23T07:50:23;6.72;;;3.63;;
28166;SDS011;15455;53.376;-6.262;2022-09-23T07:53:08;3.92;;;3.13;;
28166;SDS011;15455;53.376;-6.262;2022-09-23T07:55:54;7.00;;;4.03;;
28166;SDS011;15455;53.376;-6.262;2022-09-23T07:58:40;8.07;;;3.05;;
28166;SDS011;15455;53.376;-6.262;2022-09-23T08:01:27;11.60;;;3.13;;
28166;SDS011;15455;53.376;-6.262;2022-09-23T08:04:24;6.72;;;3.17;;
28166;SDS011;15455;53.376;-6.262;2022-09-23T08:07:12;7.30;;;3.30;;
28166;SDS011;15455;53.376;-6.262;2022-09-23T08:09:58;6.35;;;2.88;;
28166;SDS011;15455;53.376;-6.262;2022-09-23T08:12:44;7.60;;;2.55;;
28166;SDS011;15455;53.376;-6.262;2022-09-23T08:15:30;9.52;;;2.88;;
28166;SDS011;15455;53.376;-6.262;2022-09-23T08:18:16;9.50;;;2.85;;
28166;SDS011;15455;53.376;-6.262;2022-09-23T08:21:01;4.95;;;2.20;;
28166;SDS011;15455;53.376;-6.262;2022-09-23T08:23:48;8.60;;;3.10;;
28166;SDS011;15455;53.376;-6.262;2022-09-23T08:26:35;5.40;;;2.88;;
28166;SDS011;15455;53.376;-6.262;2022-09-23T08:29:22;8.35;;;3.67;;
28166;SDS011;15455;53.376;-6.262;2022-09-23T08:32:09;6.28;;;3.13;;
28166;SDS011;15455;53.376;-6.262;2022-09-23T08:34:55;9.90;;;2.88;;
28166;SDS011;15455;53.376;-6.262;2022-09-23T08:37:40;8.85;;;3.22;;
28166;SDS011;15455;53.376;-6.262;2022-09-23T08:40:26;8.15;;;3.72;;
28166;SDS011;15455;53.376;-6.262;2022-09-23T08:43:21;9.25;;;3.50;;
28166;SDS011;15455;53.376;-6.262;2022-09-23T08:46:11;8.32;;;3.25;;
28166;SDS011;15455;53.376;-6.262;2022-09-23T08:49:01;9.45;;;3.90;;
28166;SDS011;15455;53.376;-6.262;2022-09-23T08:51:50;6.78;;;3.10;;
28166;SDS011;15455;53.376;-6.262;2022-09-23T08:54:39;8.70;;;3.78;;
28166;SDS011;15455;53.376;-6.262;2022-09-23T08:57:28;4.75;;;2.90;;
28166;SDS011;15455;53.376;-6.262;2022-09-23T09:00:23;8.88;;;3.05;;
28166;SDS011;15455;53.376;-6.262;2022-09-23T09:03:22;5.18;;;3.00;;
28166;SDS011;15455;53.376;-6.262;2022-09-23T09:12:36;8.02;;;3.42;;
28166;SDS011;15455;53.376;-6.262;2022-09-23T09:15:27;4.38;;;2.60;;
28166;SDS011;15455;53.376;-6.262;2022-09-23T09:20:58;5.60;;;3.45;;
28166;SDS011;15455;53.376;-6.262;2022-09-23T09:24:16;9.68;;;3.05;;
28166;SDS011;15455;53.376;-6.262;2022-09-23T09:27:12;9.80;;;4.03;;
28166;SDS011;15455;53.376;-6.262;2022-09-23T09:29:57;4.10;;;2.97;;
28166;SDS011;15455;53.376;-6.262;2022-09-23T09:39:04;9.07;;;3.50;;
28166;SDS011;15455;53.376;-6.262;2022-09-23T09:41:55;6.45;;;3.13;;
28166;SDS011;15455;53.376;-6.262;2022-09-23T09:44:50;7.53;;;2.70;;
28166;SDS011;15455;53.376;-6.262;2022-09-23T09:47:57;6.57;;;3.45;;
28166;SDS011;15455;53.376;-6.262;2022-09-23T09:50:48;5.97;;;3.05;;
28166;SDS011;15455;53.376;-6.262;2022-09-23T09:53:39;5.68;;;2.92;;
28166;SDS011;15455;53.376;-6.262;2022-09-23T09:56:29;6.78;;;3.00;;
28166;SDS011;15455;53.376;-6.262;2022-09-23T09:59:19;7.25;;;2.85;;
28166;SDS011;15455;53.376;-6.262;2022-09-23T10:02:21;5.32;;;3.00;;
28166;SDS011;15455;53.376;-6.262;2022-09-23T10:05:32;4.68;;;2.53;;
28166;SDS011;15455;53.376;-6.262;2022-09-23T10:08:26;6.10;;;2.63;;
28166;SDS011;15455;53.376;-6.262;2022-09-23T10:14:08;8.32;;;2.53;;
28166;SDS011;15455;53.376;-6.262;2022-09-23T10:17:01;7.30;;;2.40;;
28166;SDS011;15455;53.376;-6.262;2022-09-23T10:19:54;5.07;;;2.22;;
28166;SDS011;15455;53.376;-6.262;2022-09-23T10:22:44;7.13;;;3.10;;
28166;SDS011;15455;53.376;-6.262;2022-09-23T10:25:30;9.20;;;3.47;;
28166;SDS011;15455;53.376;-6.262;2022-09-23T10:31:33;6.88;;;3.22;;
28166;SDS011;15455;53.376;-6.262;2022-09-23T10:37:15;6.47;;;3.00;;
28166;SDS011;15455;53.376;-6.262;2022-09-23T10:40:33;7.25;;;2.75;;
28166;SDS011;15455;53.376;-6.262;2022-09-23T10:50:13;6.93;;;3.00;;
28166;SDS011;15455;53.376;-6.262;2022-09-23T10:56:42;5.35;;;2.85;;
28166;SDS011;15455;53.376;-6.262;2022-09-23T11:03:20;7.88;;;2.55;;
28166;SDS011;15455;53.376;-6.262;2022-09-23T11:12:06;4.95;;;2.10;;
28166;SDS011;15455;53.376;-6.262;2022-09-23T11:21:48;3.25;;;1.48;;
28166;SDS011;15455;53.376;-6.262;2022-09-23T11:30:45;3.80;;;1.30;;
28166;SDS011;15455;53.376;-6.262;2022-09-23T11:36:50;4.78;;;1.02;;
28166;SDS011;15455;53.376;-6.262;2022-09-23T11:39:42;4.68;;;1.00;;
28166;SDS011;15455;53.376;-6.262;2022-09-23T11:42:38;7.47;;;1.25;;
28166;SDS011;15455;53.376;-6.262;2022-09-23T11:45:38;4.80;;;0.73;;
28166;SDS011;15455;53.376;-6.262;2022-09-23T11:51:37;5.70;;;1.15;;
28166;SDS011;15455;53.376;-6.262;2022-09-23T11:54:47;9.77;;;1.25;;
28166;SDS011;15455;53.376;-6.262;2022-09-23T11:58:09;6.05;;;0.95;;
28166;SDS011;15455;53.376;-6.262;2022-09-23T12:01:15;5.82;;;0.70;;
28166;SDS011;15455;53.376;-6.262;2022-09-23T12:07:16;3.00;;;0.88;;
28166;SDS011;15455;53.376;-6.262;2022-09-23T12:10:07;3.30;;;0.70;;
28166;SDS011;15455;53.376;-6.262;2022-09-23T12:13:03;3.05;;;0.47;;
28166;SDS011;15455;53.376;-6.262;2022-09-23T12:28:42;1.85;;;0.47;;
28166;SDS011;15455;53.376;-6.262;2022-09-23T12:31:31;2.17;;;0.50;;
28166;SDS011;15455;53.376;-6.262;2022-09-23T12:34:36;0.35;;;0.32;;
28166;SDS011;15455;53.376;-6.262;2022-09-23T12:37:36;2.80;;;0.38;;
28166;SDS011;15455;53.376;-6.262;2022-09-23T12:40:25;3.47;;;0.50;;
28166;SDS011;15455;53.376;-6.262;2022-09-23T12:43:19;3.55;;;0.30;;
28166;SDS011;15455;53.376;-6.262;2022-09-23T12:46:16;0.65;;;0.40;;
28166;SDS011;15455;53.376;-6.262;2022-09-23T12:49:22;1.95;;;0.45;;
28166;SDS011;15455;53.376;-6.262;2022-09-23T12:52:11;0.85;;;0.47;;
28166;SDS011;15455;53.376;-6.262;2022-09-23T12:54:59;2.35;;;0.60;;
28166;SDS011;15455;53.376;-6.262;2022-09-23T12:58:02;3.28;;;0.77;;
28166;SDS011;15455;53.376;-6.262;2022-09-23T13:01:41;1.98;;;0.40;;
28166;SDS011;15455;53.376;-6.262;2022-09-23T13:04:32;1.35;;;0.65;;
28166;SDS011;15455;53.376;-6.262;2022-09-23T13:07:46;2.70;;;0.50;;
28166;SDS011;15455;53.376;-6.262;2022-09-23T13:10:38;2.28;;;0.45;;
28166;SDS011;15455;53.376;-6.262;2022-09-23T13:13:35;2.83;;;0.68;;
28166;SDS011;15455;53.376;-6.262;2022-09-23T13:16:31;2.17;;;0.35;;
28166;SDS011;15455;53.376;-6.262;2022-09-23T13:22:10;0.25;;;0.25;;
28166;SDS011;15455;53.376;-6.262;2022-09-23T13:24:59;1.02;;;0.32;;
28166;SDS011;15455;53.376;-6.262;2022-09-23T13:27:54;1.63;;;0.40;;
28166;SDS011;15455;53.376;-6.262;2022-09-23T13:30:49;1.92;;;0.77;;
28166;SDS011;15455;53.376;-6.262;2022-09-23T13:33:51;6.75;;;0.32;;
28166;SDS011;15455;53.376;-6.262;2022-09-23T13:36:44;1.67;;;0.40;;
28166;SDS011;15455;53.376;-6.262;2022-09-23T13:39:31;1.33;;;0.75;;
28166;SDS011;15455;53.376;-6.262;2022-09-23T13:42:23;1.65;;;0.38;;
28166;SDS011;15455;53.376;-6.262;2022-09-23T13:45:12;0.30;;;0.20;;
28166;SDS011;15455;53.376;-6.262;2022-09-23T13:48:12;0.98;;;0.30;;
28166;SDS011;15455;53.376;-6.262;2022-09-23T13:51:02;1.55;;;0.30;;
28166;SDS011;15455;53.376;-6.262;2022-09-23T13:53:54;2.30;;;0.25;;
28166;SDS011;15455;53.376;-6.262;2022-09-23T13:56:41;1.08;;;0.32;;
28166;SDS011;15455;53.376;-6.262;2022-09-23T13:59:37;2.43;;;0.60;;
28166;SDS011;15455;53.376;-6.262;2022-09-23T14:02:25;2.80;;;1.02;;
28166;SDS011;15455;53.376;-6.262;2022-09-23T14:05:16;2.33;;;1.00;;
28166;SDS011;15455;53.376;-6.262;2022-09-23T14:08:06;2.30;;;0.98;;
28166;SDS011;15455;53.376;-6.262;2022-09-23T14:10:52;2.25;;;0.80;;
28166;SDS011;15455;53.376;-6.262;2022-09-23T14:13:40;3.05;;;0.90;;
28166;SDS011;15455;53.376;-6.262;2022-09-23T14:16:26;4.13;;;0.60;;
28166;SDS011;15455;53.376;-6.262;2022-09-23T14:19:17;2.58;;;0.57;;
28166;SDS011;15455;53.376;-6.262;2022-09-23T14:22:19;2.47;;;0.45;;
28166;SDS011;15455;53.376;-6.262;2022-09-23T14:25:11;3.45;;;0.85;;
28166;SDS011;15455;53.376;-6.262;2022-09-23T14:27:58;3.63;;;0.65;;
28166;SDS011;15455;53.376;-6.262;2022-09-23T14:30:45;0.88;;;0.50;;
28166;SDS011;15455;53.376;-6.262;2022-09-23T14:33:32;2.63;;;0.60;;
28166;SDS011;15455;53.376;-6.262;2022-09-23T14:36:23;0.70;;;0.40;;
28166;SDS011;15455;53.376;-6.262;2022-09-23T14:39:27;3.33;;;0.63;;
28166;SDS011;15455;53.376;-6.262;2022-09-23T14:42:13;1.15;;;0.50;;
28166;SDS011;15455;53.376;-6.262;2022-09-23T14:44:59;6.00;;;0.38;;
28166;SDS011;15455;53.376;-6.262;2022-09-23T14:47:50;2.53;;;0.50;;
28166;SDS011;15455;53.376;-6.262;2022-09-23T14:50:37;0.40;;;0.20;;
28166;SDS011;15455;53.376;-6.262;2022-09-23T14:53:38;1.63;;;0.40;;
28166;SDS011;15455;53.376;-6.262;2022-09-23T14:56:29;0.20;;;0.20;;
28166;SDS011;15455;53.376;-6.262;2022-09-23T14:59:27;2.20;;;0.30;;
28166;SDS011;15455;53.376;-6.262;2022-09-23T15:05:19;6.30;;;0.40;;
28166;SDS011;15455;53.376;-6.262;2022-09-23T15:08:07;0.32;;;0.32;;
28166;SDS011;15455;53.376;-6.262;2022-09-23T15:10:56;0.40;;;0.22;;
28166;SDS011;15455;53.376;-6.262;2022-09-23T15:13:45;1.55;;;0.40;;
28166;SDS011;15455;53.376;-6.262;2022-09-23T15:16:36;3.15;;;0.63;;
28166;SDS011;15455;53.376;-6.262;2022-09-23T15:19:24;2.35;;;0.40;;
28166;SDS011;15455;53.376;-6.262;2022-09-23T15:22:09;0.50;;;0.50;;
28166;SDS011;15455;53.376;-6.262;2022-09-23T15:25:12;0.88;;;0.50;;
28166;SDS011;15455;53.376;-6.262;2022-09-23T15:30:52;0.73;;;0.43;;
28166;SDS011;15455;53.376;-6.262;2022-09-23T15:33:39;0.68;;;0.57;;
28166;SDS011;15455;53.376;-6.262;2022-09-23T15:36:25;4.28;;;1.00;;
28166;SDS011;15455;53.376;-6.262;2022-09-23T15:39:12;3.13;;;0.65;;
28166;SDS011;15455;53.376;-6.262;2022-09-23T15:41:58;1.40;;;0.55;;
28166;SDS011;15455;53.376;-6.262;2022-09-23T15:44:45;2.15;;;0.40;;
28166;SDS011;15455;53.376;-6.262;2022-09-23T15:47:31;0.38;;;0.38;;
28166;SDS011;15455;53.376;-6.262;2022-09-23T15:50:17;0.38;;;0.32;;
28166;SDS011;15455;53.376;-6.262;2022-09-23T15:53:03;0.55;;;0.30;;
28166;SDS011;15455;53.376;-6.262;2022-09-23T15:55:50;1.65;;;0.45;;
28166;SDS011;15455;53.376;-6.262;2022-09-23T15:58:36;2.75;;;0.60;;
28166;SDS011;15455;53.376;-6.262;2022-09-23T16:01:27;0.52;;;0.30;;
28166;SDS011;15455;53.376;-6.262;2022-09-23T16:04:14;2.40;;;0.33;;
28166;SDS011;15455;53.376;-6.262;2022-09-23T16:07:00;0.47;;;0.43;;
28166;SDS011;15455;53.376;-6.262;2022-09-23T16:09:48;1.55;;;0.70;;
28166;SDS011;15455;53.376;-6.262;2022-09-23T16:12:33;1.10;;;0.70;;
28166;SDS011;15455;53.376;-6.262;2022-09-23T16:15:19;2.15;;;0.50;;
28166;SDS011;15455;53.376;-6.262;2022-09-23T16:18:07;3.05;;;0.77;;
28166;SDS011;15455;53.376;-6.262;2022-09-23T16:20:54;0.95;;;0.60;;
28166;SDS011;15455;53.376;-6.262;2022-09-23T16:23:40;1.95;;;0.70;;
28166;SDS011;15455;53.376;-6.262;2022-09-23T16:26:28;1.33;;;0.47;;
28166;SDS011;15455;53.376;-6.262;2022-09-23T16:29:16;1.08;;;0.30;;
28166;SDS011;15455;53.376;-6.262;2022-09-23T16:32:02;1.02;;;0.43;;
28166;SDS011;15455;53.376;-6.262;2022-09-23T16:34:48;2.83;;;0.43;;
28166;SDS011;15455;53.376;-6.262;2022-09-23T16:37:34;1.70;;;0.50;;
28166;SDS011;15455;53.376;-6.262;2022-09-23T16:40:21;2.38;;;0.40;;
28166;SDS011;15455;53.376;-6.262;2022-09-23T16:43:07;1.05;;;0.70;;
28166;SDS011;15455;53.376;-6.262;2022-09-23T16:45:53;1.35;;;0.38;;
28166;SDS011;15455;53.376;-6.262;2022-09-23T16:48:38;2.10;;;0.60;;
28166;SDS011;15455;53.376;-6.262;2022-09-23T16:51:29;4.18;;;0.40;;
28166;SDS011;15455;53.376;-6.262;2022-09-23T16:57:04;1.70;;;0.57;;
28166;SDS011;15455;53.376;-6.262;2022-09-23T16:59:49;2.63;;;0.88;;
28166;SDS011;15455;53.376;-6.262;2022-09-23T17:02:53;1.63;;;1.02;;
28166;SDS011;15455;53.376;-6.262;2022-09-23T17:05:58;4.13;;;1.50;;
28166;SDS011;15455;53.376;-6.262;2022-09-23T17:08:48;3.08;;;0.80;;
28166;SDS011;15455;53.376;-6.262;2022-09-23T17:11:35;4.78;;;1.10;;
28166;SDS011;15455;53.376;-6.262;2022-09-23T17:14:22;1.48;;;0.80;;
28166;SDS011;15455;53.376;-6.262;2022-09-23T17:17:07;3.97;;;0.70;;
28166;SDS011;15455;53.376;-6.262;2022-09-23T17:19:53;2.63;;;0.82;;
28166;SDS011;15455;53.376;-6.262;2022-09-23T17:22:38;2.50;;;0.77;;
28166;SDS011;15455;53.376;-6.262;2022-09-23T17:25:25;6.30;;;1.30;;
28166;SDS011;15455;53.376;-6.262;2022-09-23T17:28:10;2.53;;;1.10;;
28166;SDS011;15455;53.376;-6.262;2022-09-23T17:30:57;3.13;;;0.95;;
28166;SDS011;15455;53.376;-6.262;2022-09-23T17:33:44;5.55;;;1.63;;
28166;SDS011;15455;53.376;-6.262;2022-09-23T17:36:30;9.45;;;1.70;;
28166;SDS011;15455;53.376;-6.262;2022-09-23T17:39:16;3.45;;;1.35;;
28166;SDS011;15455;53.376;-6.262;2022-09-23T17:42:01;4.28;;;1.10;;
28166;SDS011;15455;53.376;-6.262;2022-09-23T17:44:47;8.45;;;1.20;;
28166;SDS011;15455;53.376;-6.262;2022-09-23T17:47:32;6.65;;;0.88;;
28166;SDS011;15455;53.376;-6.262;2022-09-23T17:50:25;4.38;;;0.70;;
28166;SDS011;15455;53.376;-6.262;2022-09-23T17:53:11;5.32;;;0.95;;
28166;SDS011;15455;53.376;-6.262;2022-09-23T17:56:02;2.75;;;1.02;;
28166;SDS011;15455;53.376;-6.262;2022-09-23T17:58:51;2.67;;;0.90;;
28166;SDS011;15455;53.376;-6.262;2022-09-23T18:01:38;5.90;;;1.05;;
28166;SDS011;15455;53.376;-6.262;2022-09-23T18:04:23;2.95;;;1.00;;
28166;SDS011;15455;53.376;-6.262;2022-09-23T18:07:09;10.15;;;1.65;;
28166;SDS011;15455;53.376;-6.262;2022-09-23T18:09:54;2.90;;;0.90;;
28166;SDS011;15455;53.376;-6.262;2022-09-23T18:12:40;3.15;;;1.17;;
28166;SDS011;15455;53.376;-6.262;2022-09-23T18:15:25;4.10;;;1.33;;
28166;SDS011;15455;53.376;-6.262;2022-09-23T18:18:11;5.35;;;1.05;;
28166;SDS011;15455;53.376;-6.262;2022-09-23T18:21:00;6.00;;;1.17;;
28166;SDS011;15455;53.376;-6.262;2022-09-23T18:23:47;4.18;;;0.88;;
28166;SDS011;15455;53.376;-6.262;2022-09-23T18:26:33;4.90;;;1.10;;
28166;SDS011;15455;53.376;-6.262;2022-09-23T18:29:18;4.22;;;0.90;;
28166;SDS011;15455;53.376;-6.262;2022-09-23T18:32:04;4.50;;;0.82;;
28166;SDS011;15455;53.376;-6.262;2022-09-23T18:34:49;3.50;;;0.63;;
28166;SDS011;15455;53.376;-6.262;2022-09-23T18:37:34;1.73;;;0.75;;
28166;SDS011;15455;53.376;-6.262;2022-09-23T18:40:20;3.53;;;0.70;;
28166;SDS011;15455;53.376;-6.262;2022-09-23T18:43:06;2.83;;;0.80;;
28166;SDS011;15455;53.376;-6.262;2022-09-23T18:45:56;4.68;;;0.88;;
28166;SDS011;15455;53.376;-6.262;2022-09-23T18:48:42;4.07;;;0.75;;
28166;SDS011;15455;53.376;-6.262;2022-09-23T18:51:48;3.90;;;1.00;;
28166;SDS011;15455;53.376;-6.262;2022-09-23T18:54:35;2.97;;;1.20;;
28166;SDS011;15455;53.376;-6.262;2022-09-23T18:57:20;11.73;;;3.00;;
28166;SDS011;15455;53.376;-6.262;2022-09-23T19:00:06;11.07;;;3.38;;
28166;SDS011;15455;53.376;-6.262;2022-09-23T19:02:53;6.50;;;2.60;;
28166;SDS011;15455;53.376;-6.262;2022-09-23T19:05:39;6.50;;;1.73;;